Time;durP1;ratioP1;P1;durP2;ratioP2;P2;SDS_P1;SDS_P2;PMS_P1;PMS_P2;Temp;Humidity;BMP_temperature;BMP_pressure;BME280_temperature;BME280_humidity;BME280_pressure;Samples;Min_cycle;Max_cycle;Signal;HPM_P1;HPM_P2
2022/03/31 00:00:28;;;;;;;0.50;0.50;;;4.80;99.90;;;;;;5047974;28;20220;-87
2022/03/31 00:02:58;;;;;;;0.70;0.70;;;4.80;99.90;;;;;;5048093;28;20720;-86
2022/03/31 00:05:24;;;;;;;0.50;0.50;;;4.80;99.90;;;;;;5065043;28;20217;-87
2022/03/31 00:07:56;;;;;;;0.50;0.50;;;4.90;99.90;;;;;;5047232;28;20213;-86
2022/03/31 00:10:27;;;;;;;0.73;0.73;;;4.90;99.90;;;;;;5081902;28;20224;-85
2022/03/31 00:12:54;;;;;;;0.87;0.87;;;4.90;99.90;;;;;;5064072;28;20405;-87
2022/03/31 00:15:21;;;;;;;0.50;0.50;;;4.90;99.90;;;;;;5064420;28;20332;-86
2022/03/31 00:17:47;;;;;;;0.50;0.50;;;4.80;99.90;;;;;;5046632;28;20340;-86
2022/03/31 00:20:13;;;;;;;0.87;0.87;;;4.80;99.90;;;;;;5047801;28;21218;-86
2022/03/31 00:22:40;;;;;;;0.33;0.33;;;4.80;99.90;;;;;;5065067;28;20582;-87
2022/03/31 00:25:07;;;;;;;0.60;0.60;;;4.90;99.90;;;;;;5064555;28;20251;-86
2022/03/31 00:27:34;;;;;;;2.63;0.93;;;5.00;99.90;;;;;;5065214;28;20650;-86
2022/03/31 00:30:02;;;;;;;0.60;0.60;;;4.90;99.90;;;;;;5047217;28;20223;-86
2022/03/31 00:32:27;;;;;;;0.63;0.63;;;4.80;99.90;;;;;;5046427;28;20213;-86
2022/03/31 00:34:53;;;;;;;0.43;0.43;;;4.70;99.90;;;;;;5056132;28;20251;-89
2022/03/31 00:37:19;;;;;;;0.60;0.60;;;4.70;99.90;;;;;;5065724;28;20216;-86
2022/03/31 00:39:45;;;;;;;2.53;1.57;;;4.80;99.90;;;;;;5047372;28;20722;-85
2022/03/31 00:42:10;;;;;;;0.57;0.57;;;4.90;99.90;;;;;;5064894;28;20209;-86
2022/03/31 00:44:37;;;;;;;0.60;0.60;;;4.90;99.90;;;;;;5063536;28;20229;-87
2022/03/31 00:47:03;;;;;;;0.57;0.57;;;4.90;99.90;;;;;;5081009;28;20221;-85
2022/03/31 00:49:29;;;;;;;0.40;0.40;;;5.00;99.90;;;;;;5080248;28;20598;-85
2022/03/31 00:51:55;;;;;;;0.50;0.50;;;5.00;99.90;;;;;;5081199;28;20238;-85
2022/03/31 00:54:25;;;;;;;10.57;1.13;;;4.90;99.90;;;;;;5039403;28;20224;-86
2022/03/31 00:56:51;;;;;;;0.73;0.73;;;5.00;99.90;;;;;;5080607;28;20214;-86
2022/03/31 00:59:18;;;;;;;0.30;0.30;;;5.10;99.90;;;;;;5063345;28;20233;-85
2022/03/31 01:01:46;;;;;;;0.47;0.40;;;5.10;99.90;;;;;;5063379;28;20539;-85
2022/03/31 01:04:13;;;;;;;0.43;0.43;;;5.10;99.90;;;;;;5046852;28;20688;-85
2022/03/31 01:06:42;;;;;;;0.63;0.63;;;5.00;99.90;;;;;;5081091;28;20683;-87
2022/03/31 01:09:08;;;;;;;0.60;0.60;;;5.00;99.90;;;;;;5064638;28;20221;-85
2022/03/31 01:11:33;;;;;;;2.13;1.27;;;4.90;99.90;;;;;;5063015;28;20209;-85
2022/03/31 01:13:59;;;;;;;0.87;0.83;;;4.90;99.90;;;;;;5056916;28;20221;-85
2022/03/31 01:16:25;;;;;;;5.63;1.13;;;4.90;99.90;;;;;;5047033;28;20258;-86
2022/03/31 01:18:51;;;;;;;1.13;1.00;;;4.90;99.90;;;;;;5064107;28;20213;-85
2022/03/31 01:21:18;;;;;;;0.70;0.53;;;4.90;99.90;;;;;;5064244;28;20614;-85
2022/03/31 01:23:44;;;;;;;0.23;0.23;;;5.00;99.90;;;;;;5079669;28;20259;-85
2022/03/31 01:26:10;;;;;;;0.40;0.40;;;5.00;99.90;;;;;;5065026;28;20217;-86
2022/03/31 01:28:42;;;;;;;0.53;0.53;;;5.00;99.90;;;;;;5063126;28;20762;-85
2022/03/31 01:31:09;;;;;;;0.53;0.47;;;5.00;99.90;;;;;;5064033;28;21279;-87
2022/03/31 01:33:36;;;;;;;17.90;1.43;;;5.00;99.90;;;;;;5080646;28;20185;-89
2022/03/31 01:36:04;;;;;;;0.80;0.63;;;5.00;99.90;;;;;;5063122;28;20560;-85
2022/03/31 01:38:30;;;;;;;0.20;0.20;;;5.00;99.90;;;;;;5079675;28;20313;-85
2022/03/31 01:40:57;;;;;;;0.87;0.87;;;5.00;99.90;;;;;;5045420;28;20626;-85
2022/03/31 01:43:22;;;;;;;0.93;0.87;;;5.00;99.90;;;;;;5078965;28;20232;-85
2022/03/31 01:45:49;;;;;;;1.23;1.07;;;5.00;99.90;;;;;;5046417;28;20657;-85
2022/03/31 01:48:16;;;;;;;0.93;0.93;;;5.00;99.90;;;;;;5046165;28;20232;-86
2022/03/31 01:50:42;;;;;;;0.70;0.70;;;4.90;99.90;;;;;;5045120;28;20338;-86
2022/03/31 01:53:09;;;;;;;0.67;0.67;;;5.00;99.90;;;;;;5078744;28;20501;-86
2022/03/31 01:55:35;;;;;;;0.83;0.77;;;4.90;99.90;;;;;;5045262;28;20284;-86
2022/03/31 01:58:02;;;;;;;1.40;0.83;;;4.90;99.90;;;;;;5079567;28;20221;-85
2022/03/31 02:00:28;;;;;;;0.53;0.53;;;4.90;99.90;;;;;;5064283;28;20221;-86
2022/03/31 02:02:53;;;;;;;0.77;0.77;;;4.70;99.90;;;;;;5045726;28;20237;-86
2022/03/31 02:05:20;;;;;;;0.90;0.90;;;4.50;99.90;;;;;;5062572;28;20221;-86
2022/03/31 02:07:46;;;;;;;0.40;0.40;;;4.50;99.90;;;;;;5062012;28;20279;-86
2022/03/31 02:10:13;;;;;;;1.33;0.90;;;4.40;99.90;;;;;;5062498;28;20653;-86
2022/03/31 02:12:40;;;;;;;0.80;0.80;;;4.30;99.90;;;;;;5064727;28;20181;-86
2022/03/31 02:15:09;;;;;;;0.67;0.67;;;4.20;99.90;;;;;;5062645;28;20225;-86
2022/03/31 02:17:35;;;;;;;6.83;1.27;;;4.20;99.90;;;;;;5062790;28;20239;-86
2022/03/31 02:20:01;;;;;;;0.90;0.90;;;4.30;99.90;;;;;;5062443;28;20224;-86
2022/03/31 02:22:27;;;;;;;0.70;0.70;;;4.40;99.90;;;;;;5063219;28;20693;-88
2022/03/31 02:24:53;;;;;;;1.27;1.17;;;4.40;99.90;;;;;;5063141;28;20196;-87
2022/03/31 02:27:19;;;;;;;0.40;0.40;;;4.40;99.90;;;;;;5028991;28;20252;-86
2022/03/31 02:29:45;;;;;;;0.53;0.53;;;4.30;99.90;;;;;;5062618;28;20221;-89
2022/03/31 02:32:11;;;;;;;0.40;0.40;;;4.30;99.90;;;;;;5045650;28;20220;-87
2022/03/31 02:34:36;;;;;;;0.87;0.87;;;4.30;99.90;;;;;;5079720;28;20588;-87
2022/03/31 02:37:03;;;;;;;0.93;0.70;;;4.30;99.90;;;;;;5061552;28;20213;-87
2022/03/31 02:39:29;;;;;;;0.27;0.27;;;4.20;99.90;;;;;;5044489;28;20224;-87
2022/03/31 02:41:57;;;;;;;0.80;0.80;;;4.20;99.90;;;;;;5061726;28;20910;-88
2022/03/31 02:44:24;;;;;;;0.53;0.53;;;4.20;99.90;;;;;;5067103;28;20257;-87
2022/03/31 02:46:51;;;;;;;0.70;0.70;;;4.20;99.90;;;;;;5065808;28;20323;-86
2022/03/31 02:49:17;;;;;;;1.43;1.13;;;4.20;99.90;;;;;;5083226;28;20221;-88
2022/03/31 02:51:43;;;;;;;0.40;0.40;;;4.20;99.90;;;;;;5083488;28;20193;-87
2022/03/31 02:56:53;;;;;;;0.90;0.90;;;4.20;99.90;;;;;;5080428;28;20233;-86
2022/03/31 02:59:20;;;;;;;0.93;0.93;;;4.20;99.90;;;;;;5066263;28;20573;-86
2022/03/31 03:01:46;;;;;;;1.10;0.50;;;4.20;99.90;;;;;;5058403;28;20225;-88
2022/03/31 03:04:12;;;;;;;1.37;1.27;;;4.20;99.90;;;;;;5067151;28;20287;-86
2022/03/31 03:06:39;;;;;;;0.90;0.90;;;4.20;99.90;;;;;;5083780;28;20189;-88
2022/03/31 03:09:06;;;;;;;2.73;1.27;;;4.10;99.90;;;;;;5066534;28;20346;-85
2022/03/31 03:11:32;;;;;;;0.67;0.67;;;4.10;99.90;;;;;;5082439;28;20257;-87
2022/03/31 03:13:58;;;;;;;0.50;0.50;;;4.10;99.90;;;;;;5066293;28;20308;-87
2022/03/31 03:16:24;;;;;;;0.60;0.60;;;4.00;99.90;;;;;;5065719;28;20321;-86
2022/03/31 03:18:52;;;;;;;0.77;0.77;;;4.00;99.90;;;;;;5081952;28;20347;-86
2022/03/31 03:21:18;;;;;;;1.23;1.17;;;4.00;99.90;;;;;;5064891;28;20677;-86
2022/03/31 03:23:44;;;;;;;0.63;0.63;;;4.00;99.90;;;;;;5065438;28;20275;-86
2022/03/31 03:26:09;;;;;;;13.77;1.00;;;4.10;99.90;;;;;;5065540;28;20217;-86
2022/03/31 03:28:36;;;;;;;1.20;1.10;;;4.10;99.90;;;;;;5048557;28;20780;-85
2022/03/31 03:31:03;;;;;;;4.47;1.03;;;4.10;99.90;;;;;;5048124;28;20280;-86
2022/03/31 03:33:29;;;;;;;0.70;0.70;;;4.00;99.90;;;;;;5048969;28;20189;-88
2022/03/31 03:35:55;;;;;;;0.60;0.60;;;3.90;99.90;;;;;;5081559;28;20232;-86
2022/03/31 03:38:21;;;;;;;0.87;0.70;;;3.90;99.90;;;;;;5063376;28;20237;-85
2022/03/31 03:40:47;;;;;;;0.57;0.57;;;3.90;99.90;;;;;;5065053;28;20201;-87
2022/03/31 03:43:13;;;;;;;1.23;0.63;;;3.90;99.90;;;;;;5064574;28;20185;-86
2022/03/31 03:45:39;;;;;;;1.07;1.07;;;3.80;99.90;;;;;;5066539;28;20236;-87
2022/03/31 03:48:11;;;;;;;0.73;0.40;;;3.80;99.90;;;;;;5014768;28;20239;-86
2022/03/31 03:50:38;;;;;;;0.63;0.63;;;3.70;99.90;;;;;;5048433;28;20218;-87
2022/03/31 03:53:07;;;;;;;0.40;0.40;;;3.80;99.90;;;;;;5047452;28;20311;-85
2022/03/31 03:55:35;;;;;;;2.23;0.60;;;3.80;99.90;;;;;;5046053;28;20236;-85
2022/03/31 03:58:01;;;;;;;0.67;0.67;;;3.80;99.90;;;;;;5046914;28;20247;-87
2022/03/31 04:00:28;;;;;;;0.30;0.30;;;3.80;99.90;;;;;;5082121;28;20246;-87
2022/03/31 04:02:53;;;;;;;0.30;0.30;;;3.70;99.90;;;;;;5048025;28;20209;-86
2022/03/31 04:05:20;;;;;;;0.63;0.60;;;3.60;99.90;;;;;;5064910;28;20232;-86
2022/03/31 04:07:46;;;;;;;0.50;0.50;;;3.40;99.90;;;;;;5046638;28;20228;-88
2022/03/31 04:10:12;;;;;;;0.30;0.30;;;3.30;99.90;;;;;;5066656;28;20193;-85
2022/03/31 04:12:39;;;;;;;0.30;0.30;;;3.10;99.90;;;;;;5065213;28;20197;-86
2022/03/31 04:15:06;;;;;;;0.63;0.63;;;3.10;99.90;;;;;;5073612;28;20318;-87
2022/03/31 04:17:35;;;;;;;0.40;0.40;;;3.10;99.90;;;;;;5040151;28;20216;-86
2022/03/31 04:20:03;;;;;;;3.63;0.87;;;3.10;99.90;;;;;;5066278;28;20282;-86
2022/03/31 04:22:33;;;;;;;0.97;0.97;;;3.10;99.90;;;;;;5081292;28;20212;-86
2022/03/31 04:24:58;;;;;;;0.50;0.50;;;3.00;99.90;;;;;;5047219;28;20269;-87
2022/03/31 04:27:24;;;;;;;1.03;0.47;;;2.90;99.90;;;;;;5066145;28;20741;-90
2022/03/31 04:29:50;;;;;;;0.40;0.40;;;2.80;99.90;;;;;;5047698;28;20233;-86
2022/03/31 04:32:15;;;;;;;2.73;0.87;;;2.80;99.90;;;;;;5081573;28;20225;-87
2022/03/31 04:34:41;;;;;;;0.83;0.83;;;2.80;99.90;;;;;;5065730;28;20697;-87
2022/03/31 04:37:07;;;;;;;0.73;0.70;;;2.90;99.90;;;;;;5071340;28;20190;-86
2022/03/31 04:39:33;;;;;;;0.50;0.50;;;3.00;99.90;;;;;;5057455;28;20374;-86
2022/03/31 04:41:59;;;;;;;0.30;0.30;;;3.10;99.90;;;;;;5065098;28;20321;-87
2022/03/31 04:44:25;;;;;;;0.30;0.30;;;3.20;99.90;;;;;;5065025;28;20220;-89
2022/03/31 04:46:50;;;;;;;0.70;0.70;;;3.10;99.90;;;;;;5046612;28;20577;-86
2022/03/31 04:49:16;;;;;;;0.30;0.30;;;3.20;99.90;;;;;;5078043;28;20205;-84
2022/03/31 04:51:42;;;;;;;0.30;0.30;;;3.20;99.90;;;;;;5063662;28;20672;-84
2022/03/31 04:54:07;;;;;;;0.40;0.40;;;3.30;99.90;;;;;;5060856;28;20254;-85
2022/03/31 04:56:33;;;;;;;0.83;0.83;;;3.20;99.90;;;;;;5044983;28;20855;-84
2022/03/31 04:58:59;;;;;;;0.33;0.33;;;3.20;99.90;;;;;;5061313;28;21107;-85
2022/03/31 05:01:25;;;;;;;0.50;0.50;;;3.30;99.90;;;;;;5060583;28;20239;-86
2022/03/31 05:03:54;;;;;;;0.57;0.57;;;3.30;99.90;;;;;;5078509;28;20238;-85
2022/03/31 05:06:21;;;;;;;0.60;0.60;;;3.30;99.90;;;;;;5077733;28;20256;-86
2022/03/31 05:08:47;;;;;;;0.40;0.40;;;3.30;99.90;;;;;;5043674;28;20232;-85
2022/03/31 05:11:12;;;;;;;0.27;0.27;;;3.30;99.90;;;;;;5061996;28;20220;-85
2022/03/31 05:13:38;;;;;;;0.40;0.40;;;3.30;99.90;;;;;;5061104;28;20217;-85
2022/03/31 05:16:05;;;;;;;0.63;0.63;;;3.40;99.90;;;;;;5043802;28;20181;-86
2022/03/31 05:18:31;;;;;;;0.60;0.60;;;3.40;99.90;;;;;;5045619;28;20565;-85
2022/03/31 05:20:57;;;;;;;0.40;0.40;;;3.40;99.90;;;;;;5062313;28;20790;-86
2022/03/31 05:23:23;;;;;;;0.40;0.40;;;3.40;99.90;;;;;;5044204;28;20217;-85
2022/03/31 05:25:49;;;;;;;0.50;0.50;;;3.50;99.90;;;;;;5077441;28;20221;-86
2022/03/31 05:28:15;;;;;;;0.27;0.27;;;3.50;99.90;;;;;;5061944;28;20224;-83
2022/03/31 05:30:42;;;;;;;0.43;0.43;;;3.50;99.90;;;;;;5077978;28;20532;-84
2022/03/31 05:33:08;;;;;;;0.53;0.53;;;3.50;99.90;;;;;;5043394;28;20715;-84
2022/03/31 05:35:34;;;;;;;10.10;1.00;;;3.60;99.90;;;;;;5077352;28;20221;-88
2022/03/31 05:38:00;;;;;;;1.00;0.63;;;3.60;99.90;;;;;;5063113;28;20241;-85
2022/03/31 05:40:26;;;;;;;0.40;0.40;;;3.50;99.90;;;;;;5078052;28;20220;-85
2022/03/31 05:42:52;;;;;;;0.93;0.93;;;3.50;99.90;;;;;;5062746;28;20697;-85
2022/03/31 05:45:18;;;;;;;0.40;0.40;;;3.60;99.90;;;;;;5045083;28;20259;-86
2022/03/31 05:47:44;;;;;;;0.70;0.70;;;3.60;99.90;;;;;;5044956;28;20229;-86
2022/03/31 05:50:13;;;;;;;0.40;0.40;;;3.60;99.90;;;;;;5053004;28;20255;-86
2022/03/31 05:52:39;;;;;;;0.57;0.57;;;3.60;99.90;;;;;;5062327;28;20217;-85
2022/03/31 05:55:06;;;;;;;0.53;0.53;;;3.60;99.90;;;;;;5043213;28;20229;-85
2022/03/31 05:57:36;;;;;;;0.80;0.80;;;3.60;99.90;;;;;;5077574;28;20189;-85
2022/03/31 06:00:08;;;;;;;0.60;0.60;;;3.70;99.90;;;;;;5060851;28;20712;-86
2022/03/31 06:02:34;;;;;;;0.87;0.87;;;3.60;99.90;;;;;;5044272;28;20220;-86
2022/03/31 06:05:00;;;;;;;0.80;0.80;;;3.70;99.90;;;;;;5043607;28;20225;-86
2022/03/31 06:07:25;;;;;;;3.87;0.93;;;3.80;99.90;;;;;;5077564;28;20213;-86
2022/03/31 06:09:51;;;;;;;0.60;0.60;;;3.80;99.90;;;;;;5060300;28;20181;-85
2022/03/31 06:12:17;;;;;;;1.53;0.53;;;3.90;99.90;;;;;;5060501;28;20681;-84
2022/03/31 06:14:43;;;;;;;0.30;0.30;;;3.80;99.90;;;;;;5060066;28;20219;-84
2022/03/31 06:17:09;;;;;;;0.50;0.50;;;3.70;99.90;;;;;;5043754;28;20351;-83
2022/03/31 06:19:35;;;;;;;0.40;0.40;;;3.70;99.90;;;;;;5047466;28;20228;-84
2022/03/31 06:22:01;;;;;;;0.60;0.60;;;3.70;99.90;;;;;;5046145;28;20197;-83
2022/03/31 06:24:27;;;;;;;0.50;0.50;;;3.70;99.90;;;;;;5048409;28;20197;-83
2022/03/31 06:26:55;;;;;;;0.30;0.30;;;3.60;99.90;;;;;;5063265;28;20224;-84
2022/03/31 06:29:22;;;;;;;0.37;0.37;;;3.50;99.90;;;;;;5065003;28;20277;-83
2022/03/31 06:31:47;;;;;;;0.63;0.63;;;3.60;99.90;;;;;;5046728;28;20547;-82
2022/03/31 06:34:13;;;;;;;0.57;0.57;;;3.60;99.90;;;;;;5079985;28;20652;-83
2022/03/31 06:36:39;;;;;;;0.73;0.73;;;3.50;99.90;;;;;;5080746;28;20200;-83
2022/03/31 06:39:05;;;;;;;0.60;0.60;;;3.70;99.90;;;;;;5079950;28;20237;-83
2022/03/31 06:41:30;;;;;;;0.30;0.30;;;3.70;99.90;;;;;;5063182;28;20217;-81
2022/03/31 06:43:56;;;;;;;0.60;0.60;;;3.70;99.90;;;;;;5063738;28;20236;-83
2022/03/31 06:46:22;;;;;;;0.67;0.67;;;3.70;99.90;;;;;;5063245;28;20645;-82
2022/03/31 06:48:48;;;;;;;0.57;0.47;;;3.60;99.90;;;;;;5080226;28;20301;-83
2022/03/31 06:51:16;;;;;;;1.07;0.80;;;3.60;99.90;;;;;;5062800;28;20232;-83
2022/03/31 06:53:43;;;;;;;0.90;0.90;;;3.60;99.90;;;;;;5064466;28;20224;-84
2022/03/31 06:56:13;;;;;;;1.00;0.90;;;3.60;99.90;;;;;;5079680;28;20324;-84
2022/03/31 06:58:39;;;;;;;8.80;1.67;;;3.70;99.90;;;;;;5080546;28;20255;-86
2022/03/31 07:01:06;;;;;;;0.40;0.40;;;3.80;99.90;;;;;;5064923;28;20197;-85
2022/03/31 07:03:31;;;;;;;0.67;0.67;;;3.80;99.90;;;;;;5063885;28;20251;-84
2022/03/31 07:05:57;;;;;;;0.53;0.53;;;3.90;99.90;;;;;;5080014;28;20681;-84
2022/03/31 07:08:23;;;;;;;0.30;0.30;;;3.90;99.90;;;;;;5046330;28;20221;-84
2022/03/31 07:10:49;;;;;;;0.60;0.60;;;3.90;99.90;;;;;;5062886;28;20224;-83
2022/03/31 07:13:15;;;;;;;0.50;0.50;;;3.90;99.90;;;;;;5063047;28;20227;-84
2022/03/31 07:15:41;;;;;;;0.53;0.53;;;3.90;99.90;;;;;;5046990;28;20261;-84
2022/03/31 07:18:07;;;;;;;1.13;1.03;;;4.00;99.90;;;;;;5063939;28;20343;-85
2022/03/31 07:20:34;;;;;;;1.50;1.40;;;4.10;99.90;;;;;;5064683;28;20297;-85
2022/03/31 07:22:59;;;;;;;1.83;0.87;;;4.10;99.90;;;;;;5069052;28;20224;-84
2022/03/31 07:25:26;;;;;;;1.03;1.00;;;4.20;99.90;;;;;;5063170;28;20221;-85
2022/03/31 07:27:52;;;;;;;0.77;0.77;;;4.20;99.90;;;;;;5064560;28;20204;-87
2022/03/31 07:30:19;;;;;;;0.87;0.60;;;4.00;99.90;;;;;;5063224;28;20239;-85
2022/03/31 07:32:50;;;;;;;1.30;0.93;;;4.00;99.90;;;;;;5062931;28;20221;-84
2022/03/31 07:35:16;;;;;;;0.67;0.67;;;4.00;99.90;;;;;;5046251;28;20217;-84
2022/03/31 07:37:42;;;;;;;1.43;1.43;;;4.00;99.90;;;;;;5063656;28;20209;-85
2022/03/31 07:40:08;;;;;;;1.13;1.13;;;4.00;99.90;;;;;;5063897;28;20642;-84
2022/03/31 07:42:34;;;;;;;1.03;1.03;;;4.10;99.90;;;;;;5080286;28;20189;-84
2022/03/31 07:44:59;;;;;;;0.73;0.50;;;4.10;99.90;;;;;;5061988;28;20400;-85
2022/03/31 07:47:25;;;;;;;1.20;1.10;;;4.20;99.90;;;;;;5062757;28;20247;-84
2022/03/31 07:49:52;;;;;;;0.90;0.90;;;4.20;99.90;;;;;;5079314;28;20542;-83
2022/03/31 07:52:19;;;;;;;2.50;1.37;;;4.20;99.90;;;;;;5045719;28;20248;-84
2022/03/31 07:54:45;;;;;;;0.77;0.77;;;4.30;99.90;;;;;;5062878;28;20190;-85
2022/03/31 07:57:11;;;;;;;0.40;0.40;;;4.30;99.90;;;;;;5061929;28;20236;-83
2022/03/31 07:59:37;;;;;;;0.87;0.87;;;4.20;99.90;;;;;;5063469;28;20681;-84
2022/03/31 08:02:03;;;;;;;0.60;0.60;;;4.20;99.90;;;;;;5063049;28;20229;-84
2022/03/31 08:04:28;;;;;;;1.83;1.73;;;4.20;99.90;;;;;;5079100;28;20228;-84
2022/03/31 08:06:55;;;;;;;0.70;0.70;;;4.00;99.90;;;;;;5046667;28;20244;-86
2022/03/31 08:09:21;;;;;;;0.70;0.70;;;3.90;99.90;;;;;;5078355;28;20311;-84
2022/03/31 08:11:50;;;;;;;1.20;0.40;;;3.70;99.90;;;;;;5045266;28;20766;-85
2022/03/31 08:14:17;;;;;;;1.43;1.07;;;3.70;99.90;;;;;;5045012;28;20221;-83
2022/03/31 08:16:47;;;;;;;0.70;0.70;;;3.70;99.90;;;;;;5063767;28;20588;-83
2022/03/31 08:19:17;;;;;;;1.80;1.70;;;3.70;99.90;;;;;;5060996;28;20221;-82
2022/03/31 08:21:44;;;;;;;1.10;0.70;;;3.60;99.90;;;;;;5045675;28;20217;-83
2022/03/31 08:24:13;;;;;;;0.60;0.60;;;3.60;99.90;;;;;;5044575;28;20336;-83
2022/03/31 08:26:40;;;;;;;0.43;0.43;;;3.60;99.90;;;;;;5077970;28;20311;-84
2022/03/31 08:29:07;;;;;;;0.97;0.90;;;3.70;99.90;;;;;;5044673;28;20233;-84
2022/03/31 08:31:34;;;;;;;1.03;1.03;;;3.60;99.90;;;;;;5063329;28;20681;-84
2022/03/31 08:34:00;;;;;;;1.43;1.33;;;3.50;99.90;;;;;;5061273;28;20243;-82
2022/03/31 08:36:28;;;;;;;0.50;0.50;;;3.50;99.90;;;;;;5079310;28;21017;-85
2022/03/31 08:38:54;;;;;;;0.50;0.50;;;3.40;99.90;;;;;;5078347;28;20290;-84
2022/03/31 08:41:24;;;;;;;1.40;1.17;;;3.50;99.90;;;;;;5062104;28;20225;-83
2022/03/31 08:43:50;;;;;;;1.87;1.77;;;3.40;99.90;;;;;;5061512;28;20225;-83
2022/03/31 08:46:16;;;;;;;1.53;0.93;;;3.40;99.90;;;;;;5061304;28;20391;-83
2022/03/31 08:48:43;;;;;;;1.10;1.00;;;3.50;99.90;;;;;;5061366;28;20254;-86
2022/03/31 08:51:09;;;;;;;0.47;0.47;;;3.40;99.90;;;;;;5063781;28;20225;-85
2022/03/31 08:53:35;;;;;;;0.50;0.50;;;3.50;99.90;;;;;;5079353;28;20234;-84
2022/03/31 08:56:02;;;;;;;0.67;0.67;;;3.50;99.90;;;;;;5050741;28;20252;-86
2022/03/31 08:58:27;;;;;;;1.07;0.80;;;3.50;99.90;;;;;;5063559;28;20598;-86
2022/03/31 09:00:53;;;;;;;1.60;1.50;;;3.50;99.90;;;;;;5046675;28;20193;-86
2022/03/31 09:03:20;;;;;;;1.83;1.73;;;3.50;99.90;;;;;;5052147;28;20236;-85
2022/03/31 09:05:49;;;;;;;0.57;0.57;;;3.50;99.90;;;;;;5045238;28;20222;-83
2022/03/31 09:08:16;;;;;;;19.43;1.10;;;3.50;99.90;;;;;;5062389;28;20229;-85
2022/03/31 09:10:45;;;;;;;0.83;0.83;;;3.60;99.90;;;;;;5078651;28;20213;-88
2022/03/31 09:13:25;;;;;;;0.97;0.97;;;3.50;99.90;;;;;;5045247;28;20216;-85
2022/03/31 09:15:56;;;;;;;0.50;0.50;;;3.40;99.90;;;;;;5062412;28;20227;-86
2022/03/31 09:18:23;;;;;;;0.53;0.53;;;3.40;99.90;;;;;;5063926;28;20233;-85
2022/03/31 09:20:52;;;;;;;1.03;1.03;;;3.40;99.90;;;;;;5060996;28;20261;-86
2022/03/31 09:23:22;;;;;;;1.00;1.00;;;3.30;99.90;;;;;;5079000;28;20251;-87
2022/03/31 09:25:51;;;;;;;0.40;0.40;;;3.20;99.90;;;;;;5061225;28;20216;-85
2022/03/31 09:28:25;;;;;;;7.43;1.93;;;3.30;99.90;;;;;;5063032;28;20228;-85
2022/03/31 09:30:55;;;;;;;0.70;0.70;;;3.40;99.90;;;;;;5063142;28;20213;-87
2022/03/31 09:33:32;;;;;;;4.00;3.80;;;3.40;99.90;;;;;;5044380;28;20290;-85
2022/03/31 09:36:12;;;;;;;0.83;0.83;;;3.40;99.90;;;;;;5059790;28;20707;-87
2022/03/31 09:38:39;;;;;;;0.67;0.67;;;3.30;99.90;;;;;;5063234;28;20308;-87
2022/03/31 09:41:20;;;;;;;0.53;0.53;;;3.30;99.90;;;;;;5037667;28;20225;-84
2022/03/31 09:43:48;;;;;;;0.40;0.40;;;3.40;99.90;;;;;;5044846;28;20224;-86
2022/03/31 09:46:33;;;;;;;0.70;0.70;;;3.40;99.90;;;;;;5060754;28;20216;-86
2022/03/31 09:49:19;;;;;;;1.40;1.27;;;3.40;99.90;;;;;;5078511;28;20251;-86
2022/03/31 09:51:56;;;;;;;0.93;0.93;;;3.40;99.90;;;;;;5062545;28;20181;-87
2022/03/31 09:54:25;;;;;;;1.10;1.10;;;3.20;99.90;;;;;;5053124;28;20665;-86
2022/03/31 09:56:51;;;;;;;1.43;1.33;;;3.30;99.90;;;;;;5062966;28;20627;-86
2022/03/31 09:59:17;;;;;;;0.30;0.30;;;3.30;99.90;;;;;;5043809;28;20233;-86
2022/03/31 10:01:44;;;;;;;1.20;0.87;;;3.10;99.90;;;;;;5043837;28;20691;-86
2022/03/31 10:04:12;;;;;;;1.13;1.03;;;3.10;99.90;;;;;;5060943;28;20189;-86
2022/03/31 10:06:40;;;;;;;0.97;0.60;;;3.10;99.90;;;;;;5044811;28;20189;-86
2022/03/31 10:09:08;;;;;;;1.07;1.07;;;3.20;99.90;;;;;;5054029;28;20216;-87
2022/03/31 10:11:38;;;;;;;0.60;0.60;;;3.20;99.90;;;;;;5043270;28;20764;-82
2022/03/31 10:14:19;;;;;;;0.77;0.77;;;3.10;99.90;;;;;;5063035;28;20278;-85
2022/03/31 10:16:51;;;;;;;1.47;1.10;;;3.00;99.90;;;;;;5043900;28;20213;-86
2022/03/31 10:19:38;;;;;;;1.77;0.80;;;3.10;99.90;;;;;;5077407;28;20311;-86
2022/03/31 10:22:08;;;;;;;0.53;0.53;;;3.20;99.90;;;;;;5044046;28;20227;-85
2022/03/31 10:24:44;;;;;;;0.47;0.47;;;3.20;99.90;;;;;;5078482;28;20225;-86
2022/03/31 10:27:23;;;;;;;1.13;0.60;;;3.40;99.90;;;;;;5043957;28;20220;-87
2022/03/31 10:29:49;;;;;;;1.23;1.23;;;3.20;99.90;;;;;;5062775;28;20697;-87
2022/03/31 10:32:25;;;;;;;1.53;1.43;;;3.20;99.90;;;;;;5060671;28;20224;-86
2022/03/31 10:34:55;;;;;;;0.80;0.80;;;3.20;99.90;;;;;;5077804;28;20205;-86
2022/03/31 10:37:37;;;;;;;0.40;0.40;;;3.10;99.90;;;;;;5061276;28;20231;-85
2022/03/31 10:40:10;;;;;;;1.23;1.23;;;3.00;99.90;;;;;;5063222;28;20189;-86
2022/03/31 10:42:37;;;;;;;1.63;1.53;;;3.00;99.90;;;;;;5062755;28;20208;-85
2022/03/31 10:45:12;;;;;;;0.80;0.80;;;3.00;99.90;;;;;;5077177;28;20215;-86
2022/03/31 10:47:40;;;;;;;3.40;1.43;;;3.10;99.90;;;;;;5043468;28;20216;-86
2022/03/31 10:50:09;;;;;;;2.53;2.07;;;3.00;99.90;;;;;;5060358;28;20300;-86
2022/03/31 10:52:36;;;;;;;1.00;0.90;;;3.00;99.90;;;;;;5060484;28;20807;-87
2022/03/31 10:55:14;;;;;;;2.03;1.93;;;3.00;99.90;;;;;;5043997;28;20237;-86
2022/03/31 10:57:43;;;;;;;1.87;1.77;;;2.90;99.90;;;;;;5062341;28;20185;-87
2022/03/31 11:00:11;;;;;;;0.97;0.97;;;3.10;99.90;;;;;;5044021;28;20229;-86
2022/03/31 11:02:43;;;;;;;0.80;0.80;;;3.00;99.90;;;;;;5053523;28;20224;-86
2022/03/31 11:05:09;;;;;;;1.23;1.20;;;3.10;99.90;;;;;;5065837;28;20217;-86
2022/03/31 11:07:35;;;;;;;1.90;1.60;;;3.00;99.90;;;;;;5037700;28;20224;-88
2022/03/31 11:10:12;;;;;;;0.57;0.57;;;3.10;99.90;;;;;;5064235;28;20189;-85
2022/03/31 11:12:40;;;;;;;1.67;1.17;;;3.00;99.90;;;;;;5081478;28;20203;-86
2022/03/31 11:15:11;;;;;;;1.57;1.23;;;2.90;99.90;;;;;;5064032;28;20248;-88
2022/03/31 11:17:39;;;;;;;1.77;1.63;;;3.00;99.90;;;;;;5046441;28;20213;-86
2022/03/31 11:20:14;;;;;;;1.00;1.00;;;3.00;99.90;;;;;;5080404;28;20227;-86
2022/03/31 11:22:47;;;;;;;1.10;1.10;;;2.90;99.90;;;;;;5046807;28;20225;-86
2022/03/31 11:25:13;;;;;;;1.50;0.97;;;2.90;99.90;;;;;;5047242;28;20272;-86
2022/03/31 11:27:41;;;;;;;2.03;1.73;;;3.00;99.90;;;;;;5065721;28;20212;-84
2022/03/31 11:30:19;;;;;;;0.60;0.60;;;3.00;99.90;;;;;;5079880;28;20248;-85
2022/03/31 11:32:48;;;;;;;1.50;1.40;;;3.00;99.90;;;;;;5079749;28;20232;-86
2022/03/31 11:35:17;;;;;;;0.90;0.90;;;2.90;99.90;;;;;;5079925;28;20209;-86
2022/03/31 11:37:57;;;;;;;0.97;0.83;;;2.70;99.90;;;;;;5046711;28;20216;-87
2022/03/31 11:40:40;;;;;;;0.57;0.57;;;2.60;99.90;;;;;;5064751;28;20220;-86
2022/03/31 11:43:08;;;;;;;1.17;1.17;;;2.70;99.90;;;;;;5045946;28;20181;-87
2022/03/31 11:45:42;;;;;;;1.70;1.23;;;2.70;99.90;;;;;;5053063;28;20573;-87
2022/03/31 11:48:11;;;;;;;1.03;0.83;;;2.80;99.90;;;;;;5064051;28;20217;-84
2022/03/31 11:50:39;;;;;;;2.57;1.57;;;2.90;99.90;;;;;;5064756;28;20304;-87
2022/03/31 11:53:29;;;;;;;0.90;0.60;;;2.70;99.90;;;;;;5064598;28;20224;-86
2022/03/31 11:55:58;;;;;;;1.00;0.93;;;2.70;99.90;;;;;;5055446;28;20279;-87
2022/03/31 11:58:25;;;;;;;1.10;0.60;;;2.60;99.90;;;;;;5045466;28;20229;-85
2022/03/31 12:00:51;;;;;;;0.70;0.50;;;2.60;99.90;;;;;;5046307;28;20182;-85
2022/03/31 12:03:17;;;;;;;0.30;0.30;;;2.60;99.90;;;;;;5062216;28;20239;-85
2022/03/31 12:06:00;;;;;;;0.30;0.30;;;2.60;99.90;;;;;;5040715;28;20308;-87
2022/03/31 12:08:26;;;;;;;0.53;0.53;;;2.60;99.90;;;;;;5062840;28;20233;-86
2022/03/31 12:10:54;;;;;;;0.70;0.70;;;2.60;99.90;;;;;;5078990;28;20221;-84
2022/03/31 12:13:22;;;;;;;0.60;0.60;;;2.60;99.90;;;;;;5044952;28;20225;-86
2022/03/31 12:15:48;;;;;;;1.00;0.90;;;2.50;99.90;;;;;;5045014;28;20600;-86
2022/03/31 12:18:18;;;;;;;0.33;0.33;;;2.50;99.90;;;;;;5063149;28;20230;-85
2022/03/31 12:20:46;;;;;;;0.70;0.70;;;2.60;99.90;;;;;;5062382;28;20229;-85
2022/03/31 12:23:19;;;;;;;0.43;0.43;;;2.60;99.90;;;;;;5044178;28;20217;-86
2022/03/31 12:25:45;;;;;;;0.47;0.47;;;2.60;99.90;;;;;;5062735;28;21158;-83
2022/03/31 12:28:10;;;;;;;0.87;0.80;;;2.70;99.90;;;;;;5043883;28;20201;-86
2022/03/31 12:30:46;;;;;;;0.53;0.53;;;2.70;99.90;;;;;;5062754;28;20193;-85
2022/03/31 12:33:30;;;;;;;0.70;0.70;;;2.70;99.90;;;;;;5062963;28;20248;-85
2022/03/31 12:36:04;;;;;;;0.40;0.40;;;2.60;99.90;;;;;;5045338;28;20312;-86
2022/03/31 12:38:45;;;;;;;1.50;0.80;;;2.50;99.90;;;;;;5063002;28;20232;-84
2022/03/31 12:41:15;;;;;;;0.30;0.30;;;2.50;99.90;;;;;;5062904;28;20302;-84
2022/03/31 12:43:42;;;;;;;0.40;0.40;;;2.40;99.90;;;;;;5063235;28;20909;-84
2022/03/31 12:46:13;;;;;;;0.73;0.73;;;2.30;99.90;;;;;;5063632;28;20246;-86
2022/03/31 12:48:49;;;;;;;0.50;0.50;;;2.20;99.90;;;;;;5062704;28;20201;-88
2022/03/31 12:51:14;;;;;;;0.73;0.73;;;2.10;99.90;;;;;;5077992;28;20213;-88
2022/03/31 12:53:42;;;;;;;0.40;0.40;;;2.00;99.90;;;;;;5079096;28;20802;-87
2022/03/31 12:56:09;;;;;;;0.40;0.40;;;2.10;99.90;;;;;;5062480;28;20294;-88
2022/03/31 12:58:36;;;;;;;2.30;0.90;;;2.00;99.90;;;;;;5063290;28;20221;-88
2022/03/31 13:01:03;;;;;;;0.30;0.30;;;2.00;99.90;;;;;;5079442;28;20263;-88
2022/03/31 13:03:29;;;;;;;0.40;0.40;;;1.90;99.90;;;;;;5062425;28;20200;-89